createdAt,value
2022-10-28T00:01:23.891Z,9.03
2022-10-28T00:03:57.930Z,8.98
2022-10-28T00:06:34.610Z,8.93
2022-10-28T00:09:05.716Z,8.86
2022-10-28T00:11:36.877Z,8.83
2022-10-28T00:14:07.201Z,8.77
2022-10-28T00:16:37.815Z,8.72
2022-10-28T00:19:10.011Z,8.66
2022-10-28T00:21:40.047Z,8.61
2022-10-28T00:24:10.174Z,8.56
2022-10-28T00:26:42.458Z,8.52
2022-10-28T00:29:14.790Z,8.49
2022-10-28T00:31:43.673Z,8.46
2022-10-28T00:34:15.948Z,8.45
2022-10-28T00:36:46.257Z,8.43
2022-10-28T00:39:20.733Z,8.41
2022-10-28T00:41:51.838Z,8.39
2022-10-28T00:44:41.517Z,8.38
2022-10-28T00:47:40.921Z,8.37
2022-10-28T00:50:18.518Z,8.35
2022-10-28T00:52:51.099Z,8.34
2022-10-28T00:55:21.216Z,8.31
2022-10-28T00:57:50.835Z,8.30
2022-10-28T01:00:19.327Z,8.29
2022-10-28T01:02:49.396Z,8.30
2022-10-28T01:05:30.009Z,8.28
2022-10-28T01:08:02.673Z,8.29
2022-10-28T01:10:39.958Z,8.31
2022-10-28T01:13:20.720Z,8.31
2022-10-28T01:16:13.989Z,8.29
2022-10-28T01:19:07.738Z,8.26
2022-10-28T01:21:35.625Z,8.24
2022-10-28T01:24:20.285Z,8.23
2022-10-28T01:27:26.347Z,8.22
2022-10-28T01:30:17.061Z,8.19
2022-10-28T01:33:26.495Z,8.17
2022-10-28T01:36:40.143Z,8.11
2022-10-28T01:39:36.780Z,8.01
2022-10-28T01:42:25.735Z,7.94
2022-10-28T01:45:07.736Z,7.90
2022-10-28T01:47:47.693Z,7.83
2022-10-28T01:50:32.961Z,7.78
2022-10-28T01:53:06.664Z,7.70
2022-10-28T01:55:39.382Z,7.67
2022-10-28T01:58:11.943Z,7.61
2022-10-28T02:00:40.804Z,7.59
2022-10-28T02:03:09.850Z,7.58
2022-10-28T02:05:43.713Z,7.55
2022-10-28T02:08:11.689Z,7.52
2022-10-28T02:10:52.453Z,7.49
2022-10-28T02:13:24.724Z,7.46
2022-10-28T02:16:04.884Z,7.45
2022-10-28T02:18:53.470Z,7.41
2022-10-28T02:21:34.611Z,7.36
2022-10-28T02:24:08.730Z,7.33
2022-10-28T02:26:40.741Z,7.31
2022-10-28T02:29:17.775Z,7.30
2022-10-28T02:32:09.088Z,7.27
2022-10-28T02:34:42.278Z,7.25
2022-10-28T02:37:18.176Z,7.26
2022-10-28T02:39:50.614Z,7.27
2022-10-28T02:42:27.287Z,7.27
2022-10-28T02:45:01.670Z,7.26
2022-10-28T02:47:34.450Z,7.25
2022-10-28T02:50:07.779Z,7.27
2022-10-28T02:52:36.773Z,7.25
2022-10-28T02:55:06.688Z,7.25
2022-10-28T02:57:38.861Z,7.23
2022-10-28T03:00:11.617Z,7.23
2022-10-28T03:02:39.720Z,7.24
2022-10-28T03:05:08.196Z,7.26
2022-10-28T03:07:36.158Z,7.28
2022-10-28T03:10:04.741Z,7.34
2022-10-28T03:12:32.822Z,7.37
2022-10-28T03:15:01.919Z,7.38
2022-10-28T03:17:30.056Z,7.40
2022-10-28T03:19:58.165Z,7.39
2022-10-28T03:22:26.199Z,7.40
2022-10-28T03:24:54.205Z,7.42
2022-10-28T03:27:22.056Z,7.42
2022-10-28T03:29:49.982Z,7.40
2022-10-28T03:32:17.922Z,7.35
2022-10-28T03:34:47.488Z,7.33
2022-10-28T03:37:15.479Z,7.30
2022-10-28T03:39:43.345Z,7.24
2022-10-28T03:42:11.425Z,7.21
2022-10-28T03:44:39.393Z,7.21
2022-10-28T03:47:07.255Z,7.18
2022-10-28T03:49:35.237Z,7.15
2022-10-28T03:52:04.325Z,7.13
2022-10-28T03:54:32.194Z,7.09
2022-10-28T03:57:00.361Z,7.03
2022-10-28T03:59:28.279Z,7.00
2022-10-28T04:01:56.422Z,6.95
2022-10-28T04:04:28.307Z,6.92
2022-10-28T04:06:58.812Z,6.87
2022-10-28T04:09:26.761Z,6.85
2022-10-28T04:11:54.863Z,6.82
2022-10-28T04:14:22.838Z,6.79
2022-10-28T04:16:50.773Z,6.75
2022-10-28T04:19:18.748Z,6.72
2022-10-28T04:21:46.717Z,6.68
2022-10-28T04:24:14.597Z,6.66
2022-10-28T04:26:42.528Z,6.64
2022-10-28T04:29:10.523Z,6.64
2022-10-28T04:31:38.367Z,6.63
2022-10-28T04:34:06.360Z,6.61
2022-10-28T04:36:34.325Z,6.61
2022-10-28T04:39:02.298Z,6.62
2022-10-28T04:41:30.264Z,6.63
2022-10-28T04:43:58.339Z,6.66
2022-10-28T04:46:26.479Z,6.69
2022-10-28T04:48:54.282Z,6.71
2022-10-28T04:51:22.246Z,6.74
2022-10-28T04:53:50.104Z,6.77
2022-10-28T04:56:18.080Z,6.83
2022-10-28T04:58:47.380Z,6.88
2022-10-28T05:01:15.479Z,6.92
2022-10-28T05:03:43.838Z,6.93
2022-10-28T05:06:11.806Z,6.96
2022-10-28T05:08:39.876Z,6.98
2022-10-28T05:11:07.852Z,6.98
2022-10-28T05:13:35.812Z,6.97
2022-10-28T05:16:03.996Z,6.95
2022-10-28T05:18:31.996Z,6.97
2022-10-28T05:20:59.997Z,7.02
2022-10-28T05:23:30.910Z,7.02
2022-10-28T05:25:59.132Z,7.04
2022-10-28T05:28:27.318Z,7.03
2022-10-28T05:30:55.146Z,7.03
2022-10-28T05:33:23.086Z,7.06
2022-10-28T05:35:51.120Z,7.06
2022-10-28T05:38:19.096Z,7.02
2022-10-28T05:40:46.956Z,7.01
2022-10-28T05:43:14.936Z,6.98
2022-10-28T05:45:42.897Z,6.97
2022-10-28T05:48:10.864Z,6.97
2022-10-28T05:50:38.735Z,7.00
2022-10-28T05:53:06.703Z,7.04
2022-10-28T05:55:35.492Z,7.07
2022-10-28T05:58:03.771Z,7.10
2022-10-28T06:00:31.849Z,7.12
2022-10-28T06:03:11.097Z,7.17
2022-10-28T06:05:46.167Z,7.21
2022-10-28T06:08:14.385Z,7.25
2022-10-28T06:10:54.038Z,7.27
2022-10-28T06:13:22.616Z,7.31
2022-10-28T06:15:51.939Z,7.35
2022-10-28T06:18:21.081Z,7.39
2022-10-28T06:20:53.891Z,7.46
2022-10-28T06:23:22.694Z,7.54
2022-10-28T06:25:55.370Z,7.65
2022-10-28T06:28:23.455Z,7.77
2022-10-28T06:30:51.631Z,7.90
2022-10-28T06:33:19.910Z,8.03
2022-10-28T06:35:47.874Z,8.16
2022-10-28T06:38:15.753Z,8.32
2022-10-28T06:40:43.653Z,8.49
2022-10-28T06:43:13.128Z,8.69
2022-10-28T06:45:41.195Z,8.89
2022-10-28T06:48:10.787Z,9.10
2022-10-28T06:50:39.026Z,9.26
2022-10-28T06:53:06.901Z,9.43
2022-10-28T06:55:34.921Z,9.58
2022-10-28T06:58:03.817Z,9.72
2022-10-28T07:00:38.318Z,9.85
2022-10-28T07:03:06.393Z,9.99
2022-10-28T07:05:34.468Z,10.12
2022-10-28T07:08:02.439Z,10.28
2022-10-28T07:10:30.716Z,10.44
2022-10-28T07:12:58.655Z,10.61
2022-10-28T07:15:26.661Z,10.78
2022-10-28T07:17:58.932Z,10.92
2022-10-28T07:20:28.139Z,11.09
2022-10-28T07:23:01.129Z,11.27
2022-10-28T07:25:31.450Z,11.45
2022-10-28T07:28:00.809Z,11.63
2022-10-28T07:30:29.442Z,11.82
2022-10-28T07:33:01.277Z,12.01
2022-10-28T07:35:29.179Z,12.20
2022-10-28T07:37:58.474Z,12.38
2022-10-28T07:40:27.200Z,12.54
2022-10-28T07:42:55.529Z,12.69
2022-10-28T07:45:24.941Z,12.85
2022-10-28T07:47:53.320Z,13.01
2022-10-28T07:50:21.210Z,13.18
2022-10-28T07:52:49.156Z,13.33
2022-10-28T07:55:17.124Z,13.48
2022-10-28T07:57:44.976Z,13.62
2022-10-28T08:00:13.567Z,13.76
2022-10-28T08:02:42.355Z,13.91
2022-10-28T08:05:10.622Z,14.04
2022-10-28T08:07:39.010Z,14.19
2022-10-28T08:10:07.782Z,14.36
2022-10-28T08:12:36.157Z,14.50
2022-10-28T08:15:05.550Z,14.62
2022-10-28T08:17:33.516Z,14.79
2022-10-28T08:20:01.424Z,14.96
2022-10-28T08:22:30.072Z,15.13
2022-10-28T08:24:58.042Z,15.31
2022-10-28T08:27:26.111Z,15.51
2022-10-28T08:29:54.389Z,15.77
2022-10-28T08:32:22.230Z,16.10
2022-10-28T08:34:50.201Z,16.42
2022-10-28T08:37:18.223Z,16.80
2022-10-28T08:39:46.363Z,17.22
2022-10-28T08:42:35.835Z,17.60
2022-10-28T08:45:04.324Z,17.92
2022-10-28T08:47:54.920Z,18.30
2022-10-28T08:50:28.015Z,18.77
2022-10-28T08:53:02.569Z,19.18
2022-10-28T08:55:44.740Z,19.61
2022-10-28T08:58:33.494Z,19.98
2022-10-28T09:01:01.997Z,20.26
2022-10-28T09:03:44.489Z,20.45
2022-10-28T09:06:12.460Z,20.82
2022-10-28T09:08:46.851Z,21.14
2022-10-28T09:11:26.282Z,21.44
2022-10-28T09:14:16.197Z,21.78
2022-10-28T09:16:50.926Z,21.97
2022-10-28T09:19:24.940Z,22.39
2022-10-28T09:22:22.200Z,22.52
2022-10-28T09:25:01.915Z,22.71
2022-10-28T09:27:54.715Z,22.52
2022-10-28T09:30:54.507Z,22.84
2022-10-28T09:33:37.340Z,22.98
2022-10-28T09:36:06.299Z,23.20
2022-10-28T09:38:37.894Z,23.49
2022-10-28T09:41:18.536Z,23.48
2022-10-28T09:43:52.288Z,23.56
2022-10-28T09:46:22.578Z,23.96
2022-10-28T09:48:57.909Z,24.20
2022-10-28T09:51:34.544Z,24.46
2022-10-28T09:54:02.762Z,24.58
2022-10-28T09:56:31.118Z,24.74
2022-10-28T09:59:03.240Z,24.98
2022-10-28T10:01:38.089Z,25.27
2022-10-28T10:04:18.700Z,25.49
2022-10-28T10:06:52.019Z,25.93
2022-10-28T10:09:26.322Z,26.44
2022-10-28T10:12:05.862Z,26.74
2022-10-28T10:14:56.770Z,26.92
2022-10-28T10:17:31.771Z,27.25
2022-10-28T10:20:08.314Z,27.27
2022-10-28T10:22:42.070Z,27.56
2022-10-28T10:25:18.845Z,27.89
2022-10-28T10:27:55.880Z,27.97
2022-10-28T10:30:38.133Z,27.62
2022-10-28T10:33:07.808Z,27.68
2022-10-28T10:35:37.902Z,27.63
2022-10-28T10:38:07.874Z,27.61
2022-10-28T10:40:47.368Z,27.00
2022-10-28T10:43:18.463Z,27.19
2022-10-28T10:46:13.063Z,27.56
2022-10-28T10:48:42.369Z,27.60
2022-10-28T10:51:23.754Z,27.79
2022-10-28T10:54:00.953Z,27.79
2022-10-28T10:56:32.788Z,28.22
2022-10-28T10:59:03.991Z,28.78
2022-10-28T11:01:37.096Z,29.40
2022-10-28T11:04:07.550Z,30.03
2022-10-28T11:06:56.032Z,30.60
2022-10-28T11:09:38.571Z,31.17
2022-10-28T11:12:26.860Z,31.57
2022-10-28T11:15:00.017Z,31.96
2022-10-28T11:20:25.602Z,32.18
2022-10-28T11:23:16.690Z,32.32
2022-10-28T11:25:49.889Z,31.88
2022-10-28T11:28:39.264Z,31.20
2022-10-28T11:31:16.353Z,32.00
2022-10-28T11:33:50.385Z,32.20
2022-10-28T11:36:37.682Z,32.32
2022-10-28T11:39:24.290Z,32.79
2022-10-28T11:42:37.411Z,33.41
2022-10-28T11:45:11.229Z,33.82
2022-10-28T11:47:57.560Z,34.03
2022-10-28T11:50:28.449Z,33.58
2022-10-28T11:53:15.264Z,33.56
2022-10-28T11:55:54.380Z,34.20
2022-10-28T11:58:40.286Z,34.45
2022-10-28T12:01:43.943Z,34.61
2022-10-28T12:04:52.961Z,35.29
2022-10-28T12:07:36.058Z,35.45
2022-10-28T12:10:25.623Z,35.49
2022-10-28T12:13:06.126Z,35.69
2022-10-28T12:15:50.760Z,35.53
2022-10-28T12:18:37.458Z,35.66
2022-10-28T12:21:16.199Z,35.79
2022-10-28T12:23:46.709Z,35.70
2022-10-28T12:26:18.066Z,35.56
2022-10-28T12:28:54.212Z,35.55
2022-10-28T12:31:45.018Z,34.73
2022-10-28T12:34:18.488Z,33.79
2022-10-28T12:36:57.358Z,33.24
2022-10-28T12:39:33.219Z,33.40
2022-10-28T12:42:23.336Z,33.52
2022-10-28T12:44:54.795Z,33.87
2022-10-28T12:47:51.729Z,33.75
2022-10-28T12:50:32.336Z,33.07
2022-10-28T12:53:21.719Z,32.67
2022-10-28T12:55:56.307Z,32.55
2022-10-28T12:59:12.226Z,33.18
2022-10-28T13:01:41.252Z,31.62
2022-10-28T13:04:13.019Z,31.43
2022-10-28T13:06:56.537Z,31.88
2022-10-28T13:09:42.729Z,32.14
2022-10-28T13:12:53.024Z,32.53
2022-10-28T13:15:53.733Z,32.73
2022-10-28T13:18:28.077Z,32.44
2022-10-28T13:21:11.165Z,32.68
2022-10-28T13:24:14.665Z,32.20
2022-10-28T13:26:45.040Z,32.64
2022-10-28T13:29:26.340Z,32.97
2022-10-28T13:31:55.348Z,33.18
2022-10-28T13:34:33.361Z,33.23
2022-10-28T13:37:04.971Z,33.04
2022-10-28T13:39:47.402Z,33.22
2022-10-28T13:42:16.124Z,33.16
2022-10-28T13:44:55.863Z,33.34
2022-10-28T13:47:34.383Z,32.96
2022-10-28T13:50:09.730Z,33.30
2022-10-28T13:52:40.015Z,33.41
2022-10-28T13:55:14.167Z,33.38
2022-10-28T13:57:47.907Z,32.84
2022-10-28T14:00:18.756Z,32.16
2022-10-28T14:03:08.545Z,31.22
2022-10-28T14:05:36.563Z,30.15
2022-10-28T14:08:40.371Z,29.25
2022-10-28T14:11:13.664Z,28.17
2022-10-28T14:13:50.737Z,27.45
2022-10-28T14:16:27.194Z,26.72
2022-10-28T14:19:04.190Z,26.16
2022-10-28T14:21:45.107Z,25.60
2022-10-28T14:24:31.974Z,25.15
2022-10-28T14:27:05.992Z,24.58
2022-10-28T14:29:45.927Z,24.24
2022-10-28T14:32:32.660Z,23.89
2022-10-28T14:35:14.649Z,23.50
2022-10-28T14:37:58.091Z,23.17
2022-10-28T14:40:33.634Z,22.94
2022-10-28T14:43:16.953Z,22.65
2022-10-28T14:46:22.503Z,22.33
2022-10-28T14:48:53.549Z,22.02
2022-10-28T14:51:27.138Z,21.77
2022-10-28T14:53:58.952Z,21.53
2022-10-28T14:56:31.981Z,21.33
2022-10-28T14:59:15.630Z,21.15
2022-10-28T15:02:24.507Z,20.97
2022-10-28T15:05:03.383Z,20.73
2022-10-28T15:07:37.901Z,20.51
2022-10-28T15:10:20.328Z,20.25
2022-10-28T15:12:50.338Z,19.96
2022-10-28T15:15:23.146Z,19.80
2022-10-28T15:17:52.000Z,19.61
2022-10-28T15:20:22.639Z,19.46
2022-10-28T15:22:51.917Z,19.34
2022-10-28T15:25:23.196Z,19.23
2022-10-28T15:27:52.666Z,19.10
2022-10-28T15:30:24.096Z,18.96
2022-10-28T15:32:54.469Z,18.81
2022-10-28T15:35:29.962Z,18.64
2022-10-28T15:38:01.876Z,18.49
2022-10-28T15:40:34.591Z,18.34
2022-10-28T15:43:07.282Z,18.19
2022-10-28T15:45:42.102Z,18.06
2022-10-28T15:48:14.129Z,17.92
2022-10-28T15:50:42.536Z,17.79
2022-10-28T15:53:10.483Z,17.66
2022-10-28T15:56:07.005Z,17.50
2022-10-28T15:58:35.831Z,17.37
2022-10-28T16:01:08.111Z,17.26
2022-10-28T16:03:45.160Z,17.12
2022-10-28T16:06:28.940Z,17.01
2022-10-28T16:09:07.306Z,16.88
2022-10-28T16:11:41.532Z,16.74
2022-10-28T16:14:38.011Z,16.60
2022-10-28T16:17:15.418Z,16.44
2022-10-28T16:19:51.313Z,16.28
2022-10-28T16:22:19.792Z,16.09
2022-10-28T16:24:48.891Z,15.96
2022-10-28T16:27:26.898Z,15.87
2022-10-28T16:29:54.872Z,15.75
2022-10-28T16:32:31.759Z,15.63
2022-10-28T16:35:02.411Z,15.52
2022-10-28T16:37:34.955Z,15.42
2022-10-28T16:40:03.052Z,15.32
2022-10-28T16:42:31.093Z,15.24
2022-10-28T16:44:59.065Z,15.13
2022-10-28T16:47:27.230Z,15.03
2022-10-28T16:49:57.432Z,14.93
2022-10-28T16:52:29.900Z,14.84
2022-10-28T16:54:58.730Z,14.74
2022-10-28T16:57:27.750Z,14.64
2022-10-28T16:59:55.790Z,14.56
2022-10-28T17:02:35.845Z,14.50
2022-10-28T17:05:07.704Z,14.38
2022-10-28T17:07:35.670Z,14.32
2022-10-28T17:10:04.156Z,14.29
2022-10-28T17:12:32.195Z,14.21
2022-10-28T17:15:00.277Z,14.08
2022-10-28T17:17:28.227Z,14.01
2022-10-28T17:19:56.652Z,13.94
2022-10-28T17:22:24.825Z,13.83
2022-10-28T17:24:54.648Z,13.74
2022-10-28T17:27:22.753Z,13.69
2022-10-28T17:29:50.997Z,13.64
2022-10-28T17:32:19.078Z,13.59
2022-10-28T17:34:47.232Z,13.56
2022-10-28T17:37:15.194Z,13.50
2022-10-28T17:39:43.430Z,13.42
2022-10-28T17:42:11.552Z,13.33
2022-10-28T17:44:39.803Z,13.25
2022-10-28T17:47:07.787Z,13.15
2022-10-28T17:49:36.692Z,13.07
2022-10-28T17:52:04.648Z,13.00
2022-10-28T17:54:32.558Z,12.93
2022-10-28T17:57:00.587Z,12.88
2022-10-28T17:59:28.863Z,12.79
2022-10-28T18:01:57.121Z,12.69
2022-10-28T18:04:26.672Z,12.57
2022-10-28T18:06:56.151Z,12.47
2022-10-28T18:09:25.042Z,12.39
2022-10-28T18:11:52.866Z,12.31
2022-10-28T18:14:20.982Z,12.26
2022-10-28T18:16:50.492Z,12.20
2022-10-28T18:19:18.562Z,12.12
2022-10-28T18:21:46.759Z,12.10
2022-10-28T18:24:15.116Z,12.06
2022-10-28T18:26:43.183Z,12.03
2022-10-28T18:29:13.305Z,11.97
2022-10-28T18:31:44.038Z,11.90
2022-10-28T18:34:12.107Z,11.82
2022-10-28T18:36:40.291Z,11.72
2022-10-28T18:39:08.769Z,11.65
2022-10-28T18:41:41.967Z,11.64
2022-10-28T18:44:13.134Z,11.57
2022-10-28T18:46:45.097Z,11.48
2022-10-28T18:49:13.448Z,11.41
2022-10-28T18:51:41.615Z,11.37
2022-10-28T18:54:09.462Z,11.32
2022-10-28T18:56:37.665Z,11.28
2022-10-28T18:59:05.943Z,11.23
2022-10-28T19:01:34.321Z,11.19
2022-10-28T19:04:05.371Z,11.15
2022-10-28T19:06:34.455Z,11.12
2022-10-28T19:09:04.637Z,11.04
2022-10-28T19:11:34.182Z,10.98
2022-10-28T19:14:05.624Z,10.97
2022-10-28T19:16:36.169Z,10.92
2022-10-28T19:19:05.164Z,10.87
2022-10-28T19:21:34.147Z,10.81
2022-10-28T19:24:02.831Z,10.79
2022-10-28T19:26:32.134Z,10.74
2022-10-28T19:29:00.569Z,10.67
2022-10-28T19:31:30.324Z,10.63
2022-10-28T19:33:58.397Z,10.54
2022-10-28T19:36:29.754Z,10.51
2022-10-28T19:38:58.737Z,10.45
2022-10-28T19:41:29.050Z,10.39
2022-10-28T19:43:59.834Z,10.33
2022-10-28T19:46:30.125Z,10.30
2022-10-28T19:49:00.445Z,10.26
2022-10-28T19:51:31.292Z,10.21
2022-10-28T19:54:01.518Z,10.20
2022-10-28T19:56:31.662Z,10.19
2022-10-28T19:59:01.784Z,10.14
2022-10-28T20:01:32.431Z,10.15
2022-10-28T20:04:00.968Z,10.17
2022-10-28T20:06:35.453Z,10.20
2022-10-28T20:09:04.876Z,10.23
2022-10-28T20:11:37.872Z,10.24
2022-10-28T20:14:09.982Z,10.22
2022-10-28T20:16:40.207Z,10.22
2022-10-28T20:19:08.647Z,10.23
2022-10-28T20:21:37.756Z,10.22
2022-10-28T20:24:07.159Z,10.18
2022-10-28T20:26:38.654Z,10.17
2022-10-28T20:29:10.078Z,10.16
2022-10-28T20:31:41.083Z,10.17
2022-10-28T20:34:09.173Z,10.17
2022-10-28T20:36:44.112Z,10.17
2022-10-28T20:39:17.994Z,10.14
2022-10-28T20:41:47.519Z,10.09
2022-10-28T20:44:16.311Z,10.05
2022-10-28T20:46:48.313Z,10.03
2022-10-28T20:49:16.740Z,9.97
2022-10-28T20:51:44.918Z,9.92
2022-10-28T20:54:12.895Z,9.82
2022-10-28T20:56:42.284Z,9.74
2022-10-28T20:59:10.609Z,9.66
2022-10-28T21:01:41.135Z,9.58
2022-10-28T21:04:11.541Z,9.51
2022-10-28T21:06:40.723Z,9.46
2022-10-28T21:09:09.088Z,9.42
2022-10-28T21:11:36.937Z,9.37
2022-10-28T21:14:04.934Z,9.32
2022-10-28T21:16:32.904Z,9.30
2022-10-28T21:19:01.033Z,9.27
2022-10-28T21:21:30.281Z,9.22
2022-10-28T21:24:00.602Z,9.16
2022-10-28T21:26:28.781Z,9.11
2022-10-28T21:28:56.746Z,9.05
2022-10-28T21:31:25.277Z,8.97
2022-10-28T21:33:53.721Z,8.91
2022-10-28T21:36:23.115Z,8.87
2022-10-28T21:38:57.671Z,8.84
2022-10-28T21:41:25.940Z,8.81
2022-10-28T21:43:55.207Z,8.77
2022-10-28T21:46:24.310Z,8.73
2022-10-28T21:48:52.787Z,8.71
2022-10-28T21:51:20.757Z,8.67
2022-10-28T21:53:49.040Z,8.61
2022-10-28T21:56:19.675Z,8.59
2022-10-28T21:58:49.415Z,8.59
2022-10-28T22:01:20.309Z,8.60
2022-10-28T22:03:48.655Z,8.61
2022-10-28T22:06:16.668Z,8.62
2022-10-28T22:08:45.040Z,8.58
2022-10-28T22:11:16.231Z,8.57
2022-10-28T22:13:45.276Z,8.56
2022-10-28T22:16:15.964Z,8.55
2022-10-28T22:18:45.059Z,8.58
2022-10-28T22:21:15.540Z,8.61
2022-10-28T22:23:43.916Z,8.64
2022-10-28T22:26:16.468Z,8.67
2022-10-28T22:28:45.281Z,8.70
2022-10-28T22:31:16.530Z,8.71
2022-10-28T22:36:20.427Z,8.68
2022-10-28T22:38:50.158Z,8.66
2022-10-28T22:41:22.257Z,8.66
2022-10-28T22:43:55.827Z,8.64
2022-10-28T22:46:26.380Z,8.64
2022-10-28T22:48:54.739Z,8.64
2022-10-28T22:51:23.014Z,8.62
2022-10-28T22:53:51.290Z,8.61
2022-10-28T22:56:22.238Z,8.58
2022-10-28T22:58:59.230Z,8.52
2022-10-28T23:01:29.371Z,8.52
2022-10-28T23:03:57.608Z,8.48
2022-10-28T23:06:27.437Z,8.46
2022-10-28T23:08:55.764Z,8.43
2022-10-28T23:11:23.888Z,8.36
2022-10-28T23:13:53.438Z,8.30
2022-10-28T23:16:22.928Z,8.27
2022-10-28T23:18:53.019Z,8.22
2022-10-28T23:21:23.645Z,8.18
2022-10-28T23:23:59.773Z,8.17
2022-10-28T23:26:29.617Z,8.12
2022-10-28T23:28:59.628Z,8.07
2022-10-28T23:31:28.348Z,8.05
2022-10-28T23:33:57.203Z,8.02
2022-10-28T23:36:25.586Z,8.00
2022-10-28T23:38:56.527Z,7.97
2022-10-28T23:41:24.597Z,7.95
2022-10-28T23:43:52.502Z,7.91
2022-10-28T23:46:21.351Z,7.89
2022-10-28T23:48:49.319Z,7.87
2022-10-28T23:51:19.441Z,7.86
2022-10-28T23:53:47.297Z,7.84
2022-10-28T23:56:15.276Z,7.83
2022-10-28T23:58:43.142Z,7.82
